sensor_id;sensor_type;location;lat;lon;timestamp;temperature;humidity
15099;DHT22;33900;53.640;9.942;2023-08-21T00:00:12;20.90;93.00
15099;DHT22;33900;53.640;9.942;2023-08-21T00:02:38;20.80;93.00
15099;DHT22;33900;53.640;9.942;2023-08-21T00:05:04;20.80;93.00
15099;DHT22;33900;53.640;9.942;2023-08-21T00:07:30;20.80;93.00
15099;DHT22;33900;53.640;9.942;2023-08-21T00:09:55;20.80;93.00
15099;DHT22;33900;53.640;9.942;2023-08-21T00:12:21;20.70;93.30
15099;DHT22;33900;53.640;9.942;2023-08-21T00:14:49;20.80;93.00
15099;DHT22;33900;53.640;9.942;2023-08-21T00:17:14;20.70;93.00
15099;DHT22;33900;53.640;9.942;2023-08-21T00:19:40;20.70;93.10
15099;DHT22;33900;53.640;9.942;2023-08-21T00:22:08;20.70;93.10
15099;DHT22;33900;53.640;9.942;2023-08-21T00:24:33;20.60;93.10
15099;DHT22;33900;53.640;9.942;2023-08-21T00:27:01;20.60;93.10
15099;DHT22;33900;53.640;9.942;2023-08-21T00:29:29;20.60;93.10
15099;DHT22;33900;53.640;9.942;2023-08-21T00:31:55;20.60;93.10
15099;DHT22;33900;53.640;9.942;2023-08-21T08:15:44;20.20;96.90
15099;DHT22;33900;53.640;9.942;2023-08-21T08:18:12;20.30;97.30
15099;DHT22;33900;53.640;9.942;2023-08-21T08:20:38;20.50;97.40
15099;DHT22;33900;53.640;9.942;2023-08-21T08:23:04;20.70;97.30
15099;DHT22;33900;53.640;9.942;2023-08-21T08:25:29;20.90;97.10
15099;DHT22;33900;53.640;9.942;2023-08-21T08:27:55;21.10;97.10
15099;DHT22;33900;53.640;9.942;2023-08-21T08:30:20;21.40;96.90
15099;DHT22;33900;53.640;9.942;2023-08-21T08:32:46;21.60;97.00
15099;DHT22;33900;53.640;9.942;2023-08-21T08:35:12;21.90;96.80
15099;DHT22;33900;53.640;9.942;2023-08-21T08:37:38;22.20;96.50
15099;DHT22;33900;53.640;9.942;2023-08-21T08:40:04;22.50;96.20
15099;DHT22;33900;53.640;9.942;2023-08-21T08:42:30;22.70;95.70
15099;DHT22;33900;53.640;9.942;2023-08-21T08:44:56;22.90;95.10
15099;DHT22;33900;53.640;9.942;2023-08-21T08:47:22;23.10;94.50
15099;DHT22;33900;53.640;9.942;2023-08-21T08:49:48;23.30;94.30
15099;DHT22;33900;53.640;9.942;2023-08-21T08:52:14;23.60;94.30
15099;DHT22;33900;53.640;9.942;2023-08-21T08:54:40;23.90;93.80
15099;DHT22;33900;53.640;9.942;2023-08-21T08:57:05;24.30;93.60
15099;DHT22;33900;53.640;9.942;2023-08-21T08:59:32;24.70;92.80
15099;DHT22;33900;53.640;9.942;2023-08-21T09:01:58;25.00;91.20
15099;DHT22;33900;53.640;9.942;2023-08-21T09:04:24;25.50;90.70
15099;DHT22;33900;53.640;9.942;2023-08-21T09:06:49;25.90;89.70
15099;DHT22;33900;53.640;9.942;2023-08-21T09:09:15;25.80;88.00
15099;DHT22;33900;53.640;9.942;2023-08-21T09:11:44;25.60;87.90
15099;DHT22;33900;53.640;9.942;2023-08-21T09:14:11;25.40;86.90
15099;DHT22;33900;53.640;9.942;2023-08-21T09:16:37;25.20;87.00
15099;DHT22;33900;53.640;9.942;2023-08-21T09:19:02;25.10;87.30
15099;DHT22;33900;53.640;9.942;2023-08-21T09:21:28;24.90;86.80
15099;DHT22;33900;53.640;9.942;2023-08-21T09:23:58;24.80;85.30
15099;DHT22;33900;53.640;9.942;2023-08-21T09:26:24;24.60;85.60
15099;DHT22;33900;53.640;9.942;2023-08-21T09:28:53;24.50;86.10
15099;DHT22;33900;53.640;9.942;2023-08-21T09:31:23;24.40;86.70
15099;DHT22;33900;53.640;9.942;2023-08-21T09:33:56;24.30;87.10
15099;DHT22;33900;53.640;9.942;2023-08-21T09:36:22;24.20;87.30
15099;DHT22;33900;53.640;9.942;2023-08-21T09:38:48;24.10;86.90
15099;DHT22;33900;53.640;9.942;2023-08-21T09:41:14;24.00;87.30
15099;DHT22;33900;53.640;9.942;2023-08-21T09:43:44;23.90;87.50
15099;DHT22;33900;53.640;9.942;2023-08-21T09:46:10;23.80;87.70
15099;DHT22;33900;53.640;9.942;2023-08-21T09:48:40;23.80;87.50
15099;DHT22;33900;53.640;9.942;2023-08-21T09:51:06;23.90;87.30
15099;DHT22;33900;53.640;9.942;2023-08-21T09:53:32;23.80;87.20
15099;DHT22;33900;53.640;9.942;2023-08-21T09:55:57;23.70;87.50
15099;DHT22;33900;53.640;9.942;2023-08-21T09:58:26;23.70;87.60
15099;DHT22;33900;53.640;9.942;2023-08-21T10:00:52;23.60;87.50
15099;DHT22;33900;53.640;9.942;2023-08-21T10:03:21;23.50;87.60
15099;DHT22;33900;53.640;9.942;2023-08-21T10:05:47;23.50;87.50
15099;DHT22;33900;53.640;9.942;2023-08-21T10:08:13;23.40;87.80
15099;DHT22;33900;53.640;9.942;2023-08-21T10:10:40;23.40;88.10
15099;DHT22;33900;53.640;9.942;2023-08-21T10:13:06;23.30;87.90
15099;DHT22;33900;53.640;9.942;2023-08-21T10:15:32;23.30;87.80
15099;DHT22;33900;53.640;9.942;2023-08-21T10:18:18;23.30;88.20
15099;DHT22;33900;53.640;9.942;2023-08-21T10:20:45;23.20;88.00
15099;DHT22;33900;53.640;9.942;2023-08-21T10:23:10;23.20;88.20
15099;DHT22;33900;53.640;9.942;2023-08-21T10:25:48;23.20;88.40
15099;DHT22;33900;53.640;9.942;2023-08-21T10:28:19;23.20;88.80
15099;DHT22;33900;53.640;9.942;2023-08-21T10:30:44;23.20;88.90
15099;DHT22;33900;53.640;9.942;2023-08-21T10:33:10;23.20;88.90
15099;DHT22;33900;53.640;9.942;2023-08-21T10:35:35;23.20;89.10
15099;DHT22;33900;53.640;9.942;2023-08-21T10:40:30;23.10;88.70
15099;DHT22;33900;53.640;9.942;2023-08-21T10:42:56;23.10;88.20
15099;DHT22;33900;53.640;9.942;2023-08-21T10:45:22;23.20;88.10
15099;DHT22;33900;53.640;9.942;2023-08-21T10:47:47;23.10;88.40
15099;DHT22;33900;53.640;9.942;2023-08-21T10:50:15;23.20;88.70
15099;DHT22;33900;53.640;9.942;2023-08-21T10:52:41;23.20;88.80
15099;DHT22;33900;53.640;9.942;2023-08-21T10:55:08;23.10;88.90
15099;DHT22;33900;53.640;9.942;2023-08-21T10:57:37;23.20;89.00
15099;DHT22;33900;53.640;9.942;2023-08-21T11:02:35;23.20;89.10
15099;DHT22;33900;53.640;9.942;2023-08-21T11:05:03;23.20;89.80
15099;DHT22;33900;53.640;9.942;2023-08-21T11:07:29;23.20;88.90
15099;DHT22;33900;53.640;9.942;2023-08-21T11:09:55;23.20;88.90
15099;DHT22;33900;53.640;9.942;2023-08-21T11:12:22;23.30;89.10
15099;DHT22;33900;53.640;9.942;2023-08-21T11:14:47;23.30;89.10
15099;DHT22;33900;53.640;9.942;2023-08-21T11:17:13;23.30;89.00
15099;DHT22;33900;53.640;9.942;2023-08-21T11:19:40;23.30;88.90
15099;DHT22;33900;53.640;9.942;2023-08-21T11:22:06;23.30;88.90
15099;DHT22;33900;53.640;9.942;2023-08-21T11:27:00;23.30;88.30
15099;DHT22;33900;53.640;9.942;2023-08-21T11:29:26;23.40;87.90
15099;DHT22;33900;53.640;9.942;2023-08-21T11:31:51;23.50;88.00
15099;DHT22;33900;53.640;9.942;2023-08-21T11:34:21;23.50;88.10
15099;DHT22;33900;53.640;9.942;2023-08-21T11:36:46;23.50;88.10
15099;DHT22;33900;53.640;9.942;2023-08-21T11:39:12;23.60;88.20
15099;DHT22;33900;53.640;9.942;2023-08-21T11:41:56;23.60;88.40
15099;DHT22;33900;53.640;9.942;2023-08-21T11:44:22;23.60;88.50
15099;DHT22;33900;53.640;9.942;2023-08-21T11:46:50;23.60;88.20
15099;DHT22;33900;53.640;9.942;2023-08-21T11:49:16;23.60;86.70
15099;DHT22;33900;53.640;9.942;2023-08-21T11:51:44;23.70;86.30
15099;DHT22;33900;53.640;9.942;2023-08-21T11:54:10;23.70;85.80
15099;DHT22;33900;53.640;9.942;2023-08-21T11:56:35;23.80;84.20
15099;DHT22;33900;53.640;9.942;2023-08-21T11:59:03;23.90;83.90
15099;DHT22;33900;53.640;9.942;2023-08-21T12:01:32;23.90;84.10
15099;DHT22;33900;53.640;9.942;2023-08-21T12:03:58;24.00;84.40
15099;DHT22;33900;53.640;9.942;2023-08-21T12:06:24;24.10;84.60
15099;DHT22;33900;53.640;9.942;2023-08-21T12:08:50;24.30;84.90
15099;DHT22;33900;53.640;9.942;2023-08-21T12:11:18;24.40;84.40
15099;DHT22;33900;53.640;9.942;2023-08-21T12:13:44;24.50;83.20
15099;DHT22;33900;53.640;9.942;2023-08-21T12:16:09;24.70;82.30
15099;DHT22;33900;53.640;9.942;2023-08-21T12:18:38;24.70;82.40
15099;DHT22;33900;53.640;9.942;2023-08-21T12:21:03;24.80;81.50
15099;DHT22;33900;53.640;9.942;2023-08-21T12:23:29;24.90;79.70
15099;DHT22;33900;53.640;9.942;2023-08-21T12:25:54;25.10;79.60
15099;DHT22;33900;53.640;9.942;2023-08-21T12:28:20;25.20;80.30
15099;DHT22;33900;53.640;9.942;2023-08-21T12:30:45;25.40;80.10
15099;DHT22;33900;53.640;9.942;2023-08-21T12:33:12;25.60;77.60
15099;DHT22;33900;53.640;9.942;2023-08-21T12:35:38;25.80;77.50
15099;DHT22;33900;53.640;9.942;2023-08-21T12:38:10;26.00;77.60
15099;DHT22;33900;53.640;9.942;2023-08-21T12:40:35;26.00;77.00
15099;DHT22;33900;53.640;9.942;2023-08-21T12:43:01;26.10;76.80
15099;DHT22;33900;53.640;9.942;2023-08-21T12:45:26;26.20;76.50
15099;DHT22;33900;53.640;9.942;2023-08-21T12:47:52;26.30;75.30
15099;DHT22;33900;53.640;9.942;2023-08-21T12:50:18;26.50;74.40
15099;DHT22;33900;53.640;9.942;2023-08-21T12:52:44;26.50;72.90
15099;DHT22;33900;53.640;9.942;2023-08-21T12:55:10;26.50;72.90
15099;DHT22;33900;53.640;9.942;2023-08-21T12:57:35;26.50;74.70
15099;DHT22;33900;53.640;9.942;2023-08-21T13:00:01;26.50;73.80
15099;DHT22;33900;53.640;9.942;2023-08-21T13:02:26;26.50;73.60
15099;DHT22;33900;53.640;9.942;2023-08-21T13:04:53;26.40;72.20
15099;DHT22;33900;53.640;9.942;2023-08-21T13:07:18;26.30;72.70
15099;DHT22;33900;53.640;9.942;2023-08-21T13:09:44;26.30;73.20
15099;DHT22;33900;53.640;9.942;2023-08-21T13:12:09;26.30;73.20
15099;DHT22;33900;53.640;9.942;2023-08-21T13:14:35;26.30;73.20
15099;DHT22;33900;53.640;9.942;2023-08-21T13:17:00;26.20;72.10
15099;DHT22;33900;53.640;9.942;2023-08-21T13:19:26;26.30;73.50
15099;DHT22;33900;53.640;9.942;2023-08-21T13:21:52;26.30;72.30
15099;DHT22;33900;53.640;9.942;2023-08-21T13:24:19;26.40;73.40
15099;DHT22;33900;53.640;9.942;2023-08-21T13:26:45;26.50;74.30
15099;DHT22;33900;53.640;9.942;2023-08-21T13:29:11;26.60;74.30
15099;DHT22;33900;53.640;9.942;2023-08-21T13:31:36;26.60;72.70
15099;DHT22;33900;53.640;9.942;2023-08-21T13:34:02;26.60;73.20
15099;DHT22;33900;53.640;9.942;2023-08-21T13:36:28;26.60;71.50
15099;DHT22;33900;53.640;9.942;2023-08-21T13:38:54;26.70;71.80
15099;DHT22;33900;53.640;9.942;2023-08-21T13:41:20;26.70;71.50
15099;DHT22;33900;53.640;9.942;2023-08-21T13:43:45;26.70;72.20
15099;DHT22;33900;53.640;9.942;2023-08-21T13:46:11;26.80;72.90
15099;DHT22;33900;53.640;9.942;2023-08-21T13:48:37;26.90;72.50
15099;DHT22;33900;53.640;9.942;2023-08-21T13:51:03;26.90;73.10
15099;DHT22;33900;53.640;9.942;2023-08-21T13:53:28;26.90;73.30
15099;DHT22;33900;53.640;9.942;2023-08-21T13:55:54;27.00;72.80
15099;DHT22;33900;53.640;9.942;2023-08-21T13:58:20;27.10;72.30
15099;DHT22;33900;53.640;9.942;2023-08-21T14:00:46;27.10;71.50
15099;DHT22;33900;53.640;9.942;2023-08-21T14:03:12;27.10;71.50
15099;DHT22;33900;53.640;9.942;2023-08-21T14:05:37;27.10;70.30
15099;DHT22;33900;53.640;9.942;2023-08-21T14:08:03;27.10;70.80
15099;DHT22;33900;53.640;9.942;2023-08-21T14:10:29;27.10;70.90
15099;DHT22;33900;53.640;9.942;2023-08-21T14:12:55;27.10;69.60
15099;DHT22;33900;53.640;9.942;2023-08-21T14:15:22;27.10;70.70
15099;DHT22;33900;53.640;9.942;2023-08-21T14:17:48;27.20;70.70
15099;DHT22;33900;53.640;9.942;2023-08-21T14:20:15;27.20;68.60
15099;DHT22;33900;53.640;9.942;2023-08-21T14:22:40;27.20;66.50
15099;DHT22;33900;53.640;9.942;2023-08-21T14:25:06;27.20;67.70
15099;DHT22;33900;53.640;9.942;2023-08-21T14:27:32;27.20;68.50
15099;DHT22;33900;53.640;9.942;2023-08-21T14:29:58;27.30;67.50
15099;DHT22;33900;53.640;9.942;2023-08-21T14:32:24;27.30;67.30
15099;DHT22;33900;53.640;9.942;2023-08-21T14:34:50;27.30;67.10
15099;DHT22;33900;53.640;9.942;2023-08-21T14:37:15;27.30;65.00
15099;DHT22;33900;53.640;9.942;2023-08-21T14:39:41;27.20;63.70
15099;DHT22;33900;53.640;9.942;2023-08-21T14:42:08;27.20;64.50
15099;DHT22;33900;53.640;9.942;2023-08-21T14:44:33;27.30;66.00
15099;DHT22;33900;53.640;9.942;2023-08-21T14:46:59;27.20;65.00
15099;DHT22;33900;53.640;9.942;2023-08-21T14:49:25;27.30;64.70
15099;DHT22;33900;53.640;9.942;2023-08-21T14:51:51;27.30;65.70
15099;DHT22;33900;53.640;9.942;2023-08-21T14:54:17;27.20;64.90
15099;DHT22;33900;53.640;9.942;2023-08-21T14:56:42;27.20;60.50
15099;DHT22;33900;53.640;9.942;2023-08-21T14:59:08;27.10;62.00
15099;DHT22;33900;53.640;9.942;2023-08-21T15:01:37;27.10;62.80
15099;DHT22;33900;53.640;9.942;2023-08-21T15:04:04;27.10;62.90
15099;DHT22;33900;53.640;9.942;2023-08-21T15:06:29;27.10;63.40
15099;DHT22;33900;53.640;9.942;2023-08-21T15:08:55;27.10;63.20
15099;DHT22;33900;53.640;9.942;2023-08-21T15:11:20;27.10;63.30
15099;DHT22;33900;53.640;9.942;2023-08-21T15:13:46;27.10;61.90
15099;DHT22;33900;53.640;9.942;2023-08-21T15:16:12;27.10;62.40
15099;DHT22;33900;53.640;9.942;2023-08-21T15:18:37;27.00;63.20
15099;DHT22;33900;53.640;9.942;2023-08-21T15:21:03;27.00;63.30
15099;DHT22;33900;53.640;9.942;2023-08-21T15:23:28;27.00;63.30
15099;DHT22;33900;53.640;9.942;2023-08-21T15:25:54;27.00;62.70
15099;DHT22;33900;53.640;9.942;2023-08-21T15:28:20;26.90;63.10
15099;DHT22;33900;53.640;9.942;2023-08-21T15:30:45;26.90;62.40
15099;DHT22;33900;53.640;9.942;2023-08-21T15:33:11;26.90;62.90
15099;DHT22;33900;53.640;9.942;2023-08-21T15:35:36;26.90;63.60
15099;DHT22;33900;53.640;9.942;2023-08-21T15:38:02;26.90;64.30
15099;DHT22;33900;53.640;9.942;2023-08-21T15:40:28;26.80;64.80
15099;DHT22;33900;53.640;9.942;2023-08-21T15:42:54;26.80;65.10
15099;DHT22;33900;53.640;9.942;2023-08-21T15:45:20;26.80;65.20
15099;DHT22;33900;53.640;9.942;2023-08-21T15:47:47;26.80;65.50
15099;DHT22;33900;53.640;9.942;2023-08-21T15:50:14;26.80;66.00
15099;DHT22;33900;53.640;9.942;2023-08-21T15:52:39;26.70;66.10
15099;DHT22;33900;53.640;9.942;2023-08-21T15:55:05;26.70;66.10
15099;DHT22;33900;53.640;9.942;2023-08-21T15:57:31;26.70;66.30
15099;DHT22;33900;53.640;9.942;2023-08-21T15:59:57;26.70;66.60
15099;DHT22;33900;53.640;9.942;2023-08-21T16:02:22;26.60;66.70
15099;DHT22;33900;53.640;9.942;2023-08-21T16:04:48;26.60;66.60
15099;DHT22;33900;53.640;9.942;2023-08-21T16:07:13;26.50;66.80
15099;DHT22;33900;53.640;9.942;2023-08-21T16:09:41;26.50;67.20
15099;DHT22;33900;53.640;9.942;2023-08-21T16:12:07;26.50;67.30
15099;DHT22;33900;53.640;9.942;2023-08-21T16:14:33;26.50;66.90
15099;DHT22;33900;53.640;9.942;2023-08-21T16:16:59;26.40;67.40
15099;DHT22;33900;53.640;9.942;2023-08-21T16:19:24;26.30;67.70
15099;DHT22;33900;53.640;9.942;2023-08-21T16:21:50;26.20;67.90
15099;DHT22;33900;53.640;9.942;2023-08-21T16:24:16;26.30;67.90
15099;DHT22;33900;53.640;9.942;2023-08-21T16:26:41;26.20;68.50
15099;DHT22;33900;53.640;9.942;2023-08-21T16:29:08;26.20;68.70
15099;DHT22;33900;53.640;9.942;2023-08-21T16:31:34;26.20;69.20
15099;DHT22;33900;53.640;9.942;2023-08-21T16:33:59;26.10;69.40
15099;DHT22;33900;53.640;9.942;2023-08-21T16:36:25;26.10;69.80
15099;DHT22;33900;53.640;9.942;2023-08-21T16:38:51;26.00;70.10
15099;DHT22;33900;53.640;9.942;2023-08-21T16:41:16;26.00;70.50
15099;DHT22;33900;53.640;9.942;2023-08-21T16:43:42;26.00;70.90
15099;DHT22;33900;53.640;9.942;2023-08-21T16:46:07;25.90;71.20
15099;DHT22;33900;53.640;9.942;2023-08-21T16:48:33;25.90;71.60
15099;DHT22;33900;53.640;9.942;2023-08-21T16:50:58;25.80;71.70
15099;DHT22;33900;53.640;9.942;2023-08-21T16:53:24;25.80;71.80
15099;DHT22;33900;53.640;9.942;2023-08-21T16:55:50;25.70;71.30
15099;DHT22;33900;53.640;9.942;2023-08-21T16:58:15;25.70;71.20
15099;DHT22;33900;53.640;9.942;2023-08-21T17:00:41;25.60;71.20
15099;DHT22;33900;53.640;9.942;2023-08-21T17:03:07;25.60;71.50
15099;DHT22;33900;53.640;9.942;2023-08-21T17:05:34;25.50;71.80
15099;DHT22;33900;53.640;9.942;2023-08-21T17:08:00;25.50;72.10
15099;DHT22;33900;53.640;9.942;2023-08-21T17:10:26;25.40;72.50
15099;DHT22;33900;53.640;9.942;2023-08-21T17:12:53;25.40;72.80
15099;DHT22;33900;53.640;9.942;2023-08-21T17:15:19;25.30;73.10
15099;DHT22;33900;53.640;9.942;2023-08-21T17:17:44;25.20;73.60
15099;DHT22;33900;53.640;9.942;2023-08-21T17:20:10;24.90;75.10
15099;DHT22;33900;53.640;9.942;2023-08-21T17:22:36;24.70;76.90
15099;DHT22;33900;53.640;9.942;2023-08-21T17:25:01;24.50;78.30
15099;DHT22;33900;53.640;9.942;2023-08-21T17:27:28;24.40;79.40
15099;DHT22;33900;53.640;9.942;2023-08-21T17:29:53;24.30;80.40
15099;DHT22;33900;53.640;9.942;2023-08-21T17:32:20;24.20;81.20
15099;DHT22;33900;53.640;9.942;2023-08-21T17:34:45;24.00;81.80
15099;DHT22;33900;53.640;9.942;2023-08-21T17:37:11;24.00;82.60
15099;DHT22;33900;53.640;9.942;2023-08-21T17:39:37;23.90;83.20
15099;DHT22;33900;53.640;9.942;2023-08-21T17:42:03;23.80;83.70
15099;DHT22;33900;53.640;9.942;2023-08-21T17:44:28;23.70;84.10
15099;DHT22;33900;53.640;9.942;2023-08-21T17:46:54;23.70;84.60
15099;DHT22;33900;53.640;9.942;2023-08-21T17:49:20;23.60;85.00
15099;DHT22;33900;53.640;9.942;2023-08-21T17:51:45;23.60;85.50
15099;DHT22;33900;53.640;9.942;2023-08-21T17:54:11;23.50;85.80
15099;DHT22;33900;53.640;9.942;2023-08-21T17:56:37;23.40;86.00
15099;DHT22;33900;53.640;9.942;2023-08-21T17:59:03;23.40;86.30
15099;DHT22;33900;53.640;9.942;2023-08-21T18:01:29;23.30;86.70
15099;DHT22;33900;53.640;9.942;2023-08-21T18:03:54;23.20;86.90
15099;DHT22;33900;53.640;9.942;2023-08-21T18:06:20;23.20;87.20
15099;DHT22;33900;53.640;9.942;2023-08-21T18:08:47;23.10;87.40
15099;DHT22;33900;53.640;9.942;2023-08-21T18:11:13;23.10;87.70
15099;DHT22;33900;53.640;9.942;2023-08-21T18:13:38;23.00;87.90
15099;DHT22;33900;53.640;9.942;2023-08-21T18:16:06;23.00;88.10
15099;DHT22;33900;53.640;9.942;2023-08-21T18:18:32;23.00;88.30
15099;DHT22;33900;53.640;9.942;2023-08-21T18:21:00;22.90;88.50
15099;DHT22;33900;53.640;9.942;2023-08-21T18:23:29;22.80;88.70
15099;DHT22;33900;53.640;9.942;2023-08-21T18:25:57;22.80;88.90
15099;DHT22;33900;53.640;9.942;2023-08-21T18:28:24;22.80;89.10
15099;DHT22;33900;53.640;9.942;2023-08-21T18:30:50;22.70;89.20
15099;DHT22;33900;53.640;9.942;2023-08-21T18:33:16;22.70;89.30
15099;DHT22;33900;53.640;9.942;2023-08-21T18:35:42;22.60;89.40
15099;DHT22;33900;53.640;9.942;2023-08-21T18:38:08;22.60;89.70
15099;DHT22;33900;53.640;9.942;2023-08-21T18:40:34;22.60;89.80
15099;DHT22;33900;53.640;9.942;2023-08-21T18:42:59;22.50;89.80
15099;DHT22;33900;53.640;9.942;2023-08-21T18:45:25;22.50;90.00
15099;DHT22;33900;53.640;9.942;2023-08-21T18:47:51;22.40;90.00
15099;DHT22;33900;53.640;9.942;2023-08-21T18:50:17;22.40;90.00
15099;DHT22;33900;53.640;9.942;2023-08-21T18:52:43;22.40;90.10
15099;DHT22;33900;53.640;9.942;2023-08-21T18:55:09;22.30;90.10
15099;DHT22;33900;53.640;9.942;2023-08-21T18:57:35;22.30;90.10
15099;DHT22;33900;53.640;9.942;2023-08-21T19:00:00;22.30;90.20
15099;DHT22;33900;53.640;9.942;2023-08-21T19:02:26;22.10;90.20
15099;DHT22;33900;53.640;9.942;2023-08-21T19:04:51;22.10;90.20
15099;DHT22;33900;53.640;9.942;2023-08-21T19:07:17;22.10;90.20
15099;DHT22;33900;53.640;9.942;2023-08-21T19:09:42;22.10;90.30
15099;DHT22;33900;53.640;9.942;2023-08-21T19:12:08;22.10;90.30
15099;DHT22;33900;53.640;9.942;2023-08-21T19:14:34;22.00;90.30
15099;DHT22;33900;53.640;9.942;2023-08-21T19:16:59;22.00;90.40
15099;DHT22;33900;53.640;9.942;2023-08-21T19:19:25;22.00;90.40
15099;DHT22;33900;53.640;9.942;2023-08-21T19:21:50;22.00;90.50
15099;DHT22;33900;53.640;9.942;2023-08-21T19:24:16;21.90;90.50
15099;DHT22;33900;53.640;9.942;2023-08-21T19:26:42;21.90;90.60
15099;DHT22;33900;53.640;9.942;2023-08-21T19:29:08;21.90;90.60
15099;DHT22;33900;53.640;9.942;2023-08-21T19:31:33;21.80;90.60
15099;DHT22;33900;53.640;9.942;2023-08-21T19:33:59;21.80;90.70
15099;DHT22;33900;53.640;9.942;2023-08-21T19:36:24;21.80;90.70
15099;DHT22;33900;53.640;9.942;2023-08-21T19:38:50;21.70;90.80
15099;DHT22;33900;53.640;9.942;2023-08-21T19:41:17;21.70;90.80
15099;DHT22;33900;53.640;9.942;2023-08-21T19:43:43;21.70;90.80
15099;DHT22;33900;53.640;9.942;2023-08-21T19:46:12;21.70;90.90
15099;DHT22;33900;53.640;9.942;2023-08-21T19:48:38;21.60;90.90
15099;DHT22;33900;53.640;9.942;2023-08-21T19:51:04;21.60;90.90
15099;DHT22;33900;53.640;9.942;2023-08-21T19:53:30;21.60;91.00
15099;DHT22;33900;53.640;9.942;2023-08-21T19:55:55;21.50;91.00
15099;DHT22;33900;53.640;9.942;2023-08-21T19:58:21;21.50;91.00
15099;DHT22;33900;53.640;9.942;2023-08-21T20:00:47;21.50;91.10
15099;DHT22;33900;53.640;9.942;2023-08-21T20:03:12;21.40;91.10
15099;DHT22;33900;53.640;9.942;2023-08-21T20:05:38;21.40;91.10
15099;DHT22;33900;53.640;9.942;2023-08-21T20:08:04;21.40;91.20
15099;DHT22;33900;53.640;9.942;2023-08-21T20:10:29;21.40;91.20
15099;DHT22;33900;53.640;9.942;2023-08-21T20:12:55;21.30;91.20
15099;DHT22;33900;53.640;9.942;2023-08-21T20:15:20;21.30;91.20
15099;DHT22;33900;53.640;9.942;2023-08-21T20:17:46;21.30;91.30
15099;DHT22;33900;53.640;9.942;2023-08-21T20:20:12;21.30;91.30
15099;DHT22;33900;53.640;9.942;2023-08-21T20:22:38;21.20;91.30
15099;DHT22;33900;53.640;9.942;2023-08-21T20:25:04;21.20;91.30
15099;DHT22;33900;53.640;9.942;2023-08-21T20:27:35;21.20;91.30
15099;DHT22;33900;53.640;9.942;2023-08-21T20:30:01;21.10;91.30
15099;DHT22;33900;53.640;9.942;2023-08-21T20:32:28;21.10;91.40
15099;DHT22;33900;53.640;9.942;2023-08-21T20:34:55;21.10;91.40
15099;DHT22;33900;53.640;9.942;2023-08-21T20:37:20;21.10;91.40
15099;DHT22;33900;53.640;9.942;2023-08-21T20:39:46;21.10;91.50
15099;DHT22;33900;53.640;9.942;2023-08-21T20:42:12;21.00;91.50
15099;DHT22;33900;53.640;9.942;2023-08-21T20:44:37;21.00;91.50
15099;DHT22;33900;53.640;9.942;2023-08-21T20:47:03;21.00;91.60
15099;DHT22;33900;53.640;9.942;2023-08-21T20:49:28;20.90;91.60
15099;DHT22;33900;53.640;9.942;2023-08-21T20:51:55;20.90;91.60
15099;DHT22;33900;53.640;9.942;2023-08-21T20:54:20;20.90;91.70
15099;DHT22;33900;53.640;9.942;2023-08-21T20:56:46;20.90;91.70
15099;DHT22;33900;53.640;9.942;2023-08-21T20:59:11;20.80;91.70
15099;DHT22;33900;53.640;9.942;2023-08-21T21:01:37;20.80;91.70
15099;DHT22;33900;53.640;9.942;2023-08-21T21:04:03;20.80;91.80
15099;DHT22;33900;53.640;9.942;2023-08-21T21:06:29;20.80;91.80
15099;DHT22;33900;53.640;9.942;2023-08-21T21:08:57;20.80;91.80
15099;DHT22;33900;53.640;9.942;2023-08-21T21:11:22;20.70;91.80
15099;DHT22;33900;53.640;9.942;2023-08-21T21:13:48;20.70;91.90
15099;DHT22;33900;53.640;9.942;2023-08-21T21:16:14;20.70;91.90
15099;DHT22;33900;53.640;9.942;2023-08-21T21:18:39;20.70;91.90
15099;DHT22;33900;53.640;9.942;2023-08-21T21:21:05;20.70;92.00
15099;DHT22;33900;53.640;9.942;2023-08-21T21:23:30;20.70;92.00
15099;DHT22;33900;53.640;9.942;2023-08-21T21:25:59;20.60;92.00
15099;DHT22;33900;53.640;9.942;2023-08-21T21:28:28;20.60;92.00
15099;DHT22;33900;53.640;9.942;2023-08-21T21:30:55;20.60;92.00
15099;DHT22;33900;53.640;9.942;2023-08-21T21:33:20;20.60;92.10
15099;DHT22;33900;53.640;9.942;2023-08-21T21:35:46;20.50;92.00
15099;DHT22;33900;53.640;9.942;2023-08-21T21:38:14;20.50;92.10
15099;DHT22;33900;53.640;9.942;2023-08-21T21:40:40;20.50;92.10
15099;DHT22;33900;53.640;9.942;2023-08-21T21:43:06;20.50;92.10
15099;DHT22;33900;53.640;9.942;2023-08-21T21:45:33;20.50;92.10
15099;DHT22;33900;53.640;9.942;2023-08-21T21:47:59;20.50;92.10
15099;DHT22;33900;53.640;9.942;2023-08-21T21:50:25;20.40;92.10
15099;DHT22;33900;53.640;9.942;2023-08-21T21:52:51;20.40;92.10
15099;DHT22;33900;53.640;9.942;2023-08-21T21:55:16;20.40;92.10
15099;DHT22;33900;53.640;9.942;2023-08-21T21:57:42;20.30;92.10
15099;DHT22;33900;53.640;9.942;2023-08-21T22:00:07;20.30;92.10
15099;DHT22;33900;53.640;9.942;2023-08-21T22:02:38;20.30;92.10
15099;DHT22;33900;53.640;9.942;2023-08-21T22:05:06;20.30;92.20
15099;DHT22;33900;53.640;9.942;2023-08-21T22:07:32;20.20;92.20
15099;DHT22;33900;53.640;9.942;2023-08-21T22:09:57;20.30;92.20
15099;DHT22;33900;53.640;9.942;2023-08-21T22:12:23;20.20;92.20
15099;DHT22;33900;53.640;9.942;2023-08-21T22:14:51;20.20;92.20
15099;DHT22;33900;53.640;9.942;2023-08-21T22:17:17;20.20;92.20
15099;DHT22;33900;53.640;9.942;2023-08-21T22:19:43;20.20;92.20
15099;DHT22;33900;53.640;9.942;2023-08-21T22:22:08;20.10;92.20
15099;DHT22;33900;53.640;9.942;2023-08-21T22:24:34;20.10;92.20
15099;DHT22;33900;53.640;9.942;2023-08-21T22:26:59;20.10;92.20
15099;DHT22;33900;53.640;9.942;2023-08-21T22:29:26;20.10;92.20
15099;DHT22;33900;53.640;9.942;2023-08-21T22:31:52;20.10;92.20
15099;DHT22;33900;53.640;9.942;2023-08-21T22:34:17;20.10;92.30
15099;DHT22;33900;53.640;9.942;2023-08-21T22:36:43;20.10;92.30
15099;DHT22;33900;53.640;9.942;2023-08-21T22:39:08;20.00;92.20
15099;DHT22;33900;53.640;9.942;2023-08-21T22:41:34;20.00;92.20
15099;DHT22;33900;53.640;9.942;2023-08-21T22:43:59;20.00;92.30
15099;DHT22;33900;53.640;9.942;2023-08-21T22:46:27;19.90;92.30
15099;DHT22;33900;53.640;9.942;2023-08-21T22:48:53;20.00;92.30
15099;DHT22;33900;53.640;9.942;2023-08-21T22:51:19;20.00;92.30
15099;DHT22;33900;53.640;9.942;2023-08-21T22:53:44;19.90;92.30
15099;DHT22;33900;53.640;9.942;2023-08-21T22:56:10;19.90;92.30
15099;DHT22;33900;53.640;9.942;2023-08-21T22:58:35;19.90;92.40
15099;DHT22;33900;53.640;9.942;2023-08-21T23:01:03;19.90;92.40
15099;DHT22;33900;53.640;9.942;2023-08-21T23:03:28;19.90;92.40
15099;DHT22;33900;53.640;9.942;2023-08-21T23:05:54;19.80;92.30
15099;DHT22;33900;53.640;9.942;2023-08-21T23:08:21;19.80;92.30
15099;DHT22;33900;53.640;9.942;2023-08-21T23:10:47;19.80;92.40